Burwash Landing, Canada
Current Conditions -  °F | °C
As of 9:00 AM on Thursday 23 Oct 2014 (Local Time) from CYDB Reporting Station
Light Snow Light Snow  
Wind Chill: 20°   Ceiling: 4000
Heat Index: 27°   Visibility: 15mi
Dew Point: 25°   Wind: 6mph
Humidity: 93%   Direction: 300°WNW
Pressure: 29.59"   Gusts: NA
Location:  61.35°N, 138.99°W
Report Text: CYDB 231600Z 30005KT 15SM -SN FEW002 BKN040 OVC080 M03/M04 A2959 RMK ST1SC5AC2 SLP065
Loading
Personal Weather Stations






























Interactive Weather Map
Tropical Storm Tracking
New forecast layout! Learn more

10-Day Weather Forecast

Advertisements
Track Severe Weather on mobile